Time;durP1;ratioP1;P1;durP2;ratioP2;P2;SDS_P1;SDS_P2;PMS_P1;PMS_P2;Temp;Humidity;BMP_temperature;BMP_pressure;BME280_temperature;BME280_humidity;BME280_pressure;Samples;Min_cycle;Max_cycle;Signal;HPM_P1;HPM_P2
2023/01/19 00:02:20;;;;;;;6.68;3.72;;;;;;;;;;5051967;28;20454;-69
2023/01/19 00:04:46;;;;;;;8.98;5.22;;;;;;;;;;5052449;28;20087;-69
2023/01/19 00:07:13;;;;;;;5.20;4.13;;;;;;;;;;5051631;28;20049;-68
2023/01/19 00:09:39;;;;;;;9.73;4.82;;;;;;;;;;5052131;28;20051;-68
2023/01/19 00:12:07;;;;;;;12.65;6.15;;;;;;;;;;5052242;28;20098;-68
2023/01/19 00:14:33;;;;;;;10.23;5.43;;;;;;;;;;5051736;28;20041;-68
2023/01/19 00:17:03;;;;;;;14.68;6.35;;;;;;;;;;5051983;28;20097;-68
2023/01/19 00:19:29;;;;;;;15.05;6.50;;;;;;;;;;5051606;28;20055;-68
2023/01/19 00:21:55;;;;;;;17.35;8.27;;;;;;;;;;5051665;28;20503;-69
2023/01/19 00:24:22;;;;;;;12.52;6.18;;;;;;;;;;5051692;28;20160;-69
2023/01/19 00:26:48;;;;;;;17.50;8.32;;;;;;;;;;5051619;28;20139;-69
2023/01/19 00:29:14;;;;;;;13.02;7.63;;;;;;;;;;5051478;28;20052;-69
2023/01/19 00:31:41;;;;;;;13.60;7.50;;;;;;;;;;5051576;28;20131;-69
2023/01/19 00:34:07;;;;;;;15.27;8.20;;;;;;;;;;5047846;28;20261;-69
2023/01/19 00:36:34;;;;;;;11.95;6.97;;;;;;;;;;5051037;28;20124;-69
2023/01/19 00:39:00;;;;;;;10.55;7.32;;;;;;;;;;5051331;28;20488;-69
2023/01/19 00:44:12;;;;;;;16.27;8.20;;;;;;;;;;5051363;28;20051;-69
2023/01/19 00:46:38;;;;;;;14.98;7.65;;;;;;;;;;5051508;28;20049;-69
2023/01/19 00:49:04;;;;;;;13.48;7.80;;;;;;;;;;5051290;28;20052;-69
2023/01/19 00:51:31;;;;;;;14.82;9.23;;;;;;;;;;5051268;28;20144;-69
2023/01/19 00:54:03;;;;;;;15.65;8.95;;;;;;;;;;5051454;28;20049;-69
2023/01/19 00:56:33;;;;;;;16.73;9.32;;;;;;;;;;5055154;28;20080;-69
2023/01/19 00:58:59;;;;;;;17.17;9.98;;;;;;;;;;5055248;28;20120;-69
2023/01/19 01:01:25;;;;;;;17.77;9.73;;;;;;;;;;5037876;28;20048;-69
2023/01/19 01:04:12;;;;;;;16.30;9.40;;;;;;;;;;5055379;28;20075;-69
2023/01/19 01:06:39;;;;;;;25.70;13.30;;;;;;;;;;5054974;28;20061;-69
2023/01/19 01:09:10;;;;;;;25.77;14.15;;;;;;;;;;5037648;28;20127;-69
2023/01/19 01:11:38;;;;;;;22.77;14.05;;;;;;;;;;5037492;28;20056;-68
2023/01/19 01:14:05;;;;;;;23.88;13.02;;;;;;;;;;5055188;28;20135;-69
2023/01/19 01:16:32;;;;;;;16.77;9.55;;;;;;;;;;5055180;28;20120;-68
2023/01/19 01:18:58;;;;;;;17.75;10.40;;;;;;;;;;5054953;28;20048;-69
2023/01/19 01:21:25;;;;;;;16.35;10.07;;;;;;;;;;5055027;28;20457;-69
2023/01/19 01:23:51;;;;;;;26.30;17.50;;;;;;;;;;5055053;28;20061;-69
2023/01/19 01:26:17;;;;;;;46.65;25.80;;;;;;;;;;5055036;28;20053;-69
2023/01/19 01:28:44;;;;;;;46.72;27.23;;;;;;;;;;5054844;28;20057;-69
2023/01/19 01:31:10;;;;;;;22.00;15.13;;;;;;;;;;5036929;28;20049;-69
2023/01/19 01:33:36;;;;;;;20.80;13.52;;;;;;;;;;5037181;28;20067;-69
2023/01/19 01:36:07;;;;;;;40.08;22.73;;;;;;;;;;5055182;28;20045;-69
2023/01/19 01:38:33;;;;;;;52.78;29.20;;;;;;;;;;5054587;28;20230;-69
2023/01/19 01:40:59;;;;;;;40.65;22.40;;;;;;;;;;5054548;28;20087;-69
2023/01/19 01:43:43;;;;;;;52.15;26.73;;;;;;;;;;5054634;28;20194;-69
2023/01/19 01:46:10;;;;;;;43.05;23.27;;;;;;;;;;5054488;28;20057;-69
2023/01/19 01:48:38;;;;;;;26.77;17.00;;;;;;;;;;5054400;28;20077;-69
2023/01/19 01:51:24;;;;;;;11.50;7.20;;;;;;;;;;5054399;28;20052;-68
2023/01/19 01:54:03;;;;;;;8.05;5.15;;;;;;;;;;5054529;28;20091;-69
2023/01/19 01:56:40;;;;;;;5.57;5.07;;;;;;;;;;5054334;28;20087;-69
2023/01/19 01:59:09;;;;;;;6.03;4.27;;;;;;;;;;5054568;28;20045;-69
2023/01/19 02:04:21;;;;;;;4.78;4.38;;;;;;;;;;5054238;28;20577;-69
2023/01/19 02:15:05;;;;;;;6.70;5.03;;;;;;;;;;5054229;28;20127;-69
2023/01/19 02:17:31;;;;;;;5.47;4.53;;;;;;;;;;5053859;28;20128;-69
2023/01/19 02:19:58;;;;;;;5.88;4.55;;;;;;;;;;5053939;28;20148;-69
2023/01/19 02:22:30;;;;;;;6.00;5.40;;;;;;;;;;5053994;28;20131;-69
2023/01/19 02:24:57;;;;;;;6.03;4.25;;;;;;;;;;5036335;28;20151;-69
2023/01/19 02:27:24;;;;;;;4.85;4.38;;;;;;;;;;5053850;28;20132;-69
2023/01/19 02:29:50;;;;;;;4.97;4.35;;;;;;;;;;5053701;28;20052;-69
2023/01/19 02:32:16;;;;;;;10.05;6.78;;;;;;;;;;5053599;28;20074;-69
2023/01/19 02:34:43;;;;;;;6.25;5.53;;;;;;;;;;5053420;28;20057;-69
2023/01/19 02:37:10;;;;;;;5.85;4.70;;;;;;;;;;5053556;28;20544;-69
2023/01/19 02:39:40;;;;;;;5.60;4.53;;;;;;;;;;5053645;28;20139;-69
2023/01/19 02:42:09;;;;;;;4.50;4.10;;;;;;;;;;5053535;28;20061;-69
2023/01/19 02:44:36;;;;;;;5.95;5.13;;;;;;;;;;5053499;28;20059;-69
2023/01/19 02:47:03;;;;;;;5.72;5.13;;;;;;;;;;5035599;28;20055;-69
2023/01/19 02:49:29;;;;;;;6.68;5.15;;;;;;;;;;5053265;28;20067;-69
2023/01/19 02:51:56;;;;;;;5.18;4.63;;;;;;;;;;5053213;28;20041;-69
2023/01/19 02:54:32;;;;;;;6.28;4.38;;;;;;;;;;5053448;28;20083;-69
2023/01/19 02:57:17;;;;;;;5.15;4.65;;;;;;;;;;5053490;28;20149;-68
2023/01/19 02:59:49;;;;;;;6.25;4.90;;;;;;;;;;5053174;28;20049;-68
2023/01/19 03:02:37;;;;;;;5.72;4.15;;;;;;;;;;5053328;28;20037;-69
2023/01/19 03:05:07;;;;;;;5.18;4.40;;;;;;;;;;5053344;28;20049;-69
2023/01/19 03:07:41;;;;;;;7.20;5.80;;;;;;;;;;5034910;28;20135;-69
2023/01/19 03:10:10;;;;;;;7.38;4.55;;;;;;;;;;5052907;28;20053;-69
2023/01/19 03:12:37;;;;;;;4.80;3.97;;;;;;;;;;5053010;28;20049;-69
2023/01/19 03:15:10;;;;;;;4.70;3.90;;;;;;;;;;5052759;28;20057;-69
2023/01/19 03:17:37;;;;;;;5.32;4.50;;;;;;;;;;5052491;28;20051;-69
2023/01/19 03:20:04;;;;;;;6.68;5.05;;;;;;;;;;5052727;28;20519;-68
2023/01/19 03:22:31;;;;;;;5.10;4.60;;;;;;;;;;5052861;28;20048;-69
2023/01/19 03:24:59;;;;;;;6.60;4.70;;;;;;;;;;5052897;28;20139;-69
2023/01/19 03:27:30;;;;;;;5.38;4.63;;;;;;;;;;5052529;28;20103;-69
2023/01/19 03:29:59;;;;;;;5.57;4.43;;;;;;;;;;5047483;28;20045;-69
2023/01/19 03:32:32;;;;;;;6.22;4.65;;;;;;;;;;5015005;28;20132;-68
2023/01/19 03:35:00;;;;;;;8.02;5.68;;;;;;;;;;5014867;28;20409;-69
2023/01/19 03:37:28;;;;;;;9.02;6.80;;;;;;;;;;5032752;28;20099;-68
2023/01/19 03:39:55;;;;;;;9.75;5.53;;;;;;;;;;5032417;28;20408;-69
2023/01/19 03:42:23;;;;;;;8.32;6.90;;;;;;;;;;5032449;28;20050;-69
2023/01/19 03:44:51;;;;;;;7.75;6.00;;;;;;;;;;5032304;28;20057;-69
2023/01/19 03:47:17;;;;;;;;;;;;;;;;;;5015471;28;20083;-69
2023/01/19 03:49:45;;;;;;;5.55;4.95;;;;;;;;;;5032309;28;19928;-69
2023/01/19 03:52:11;;;;;;;6.78;5.32;;;;;;;;;;5032334;28;20133;-68
2023/01/19 03:54:38;;;;;;;6.00;4.70;;;;;;;;;;5032149;28;20680;-68
2023/01/19 03:57:04;;;;;;;5.95;4.88;;;;;;;;;;5032156;28;20055;-69
2023/01/19 03:59:31;;;;;;;4.68;4.28;;;;;;;;;;5032226;28;20132;-69
2023/01/19 04:01:58;;;;;;;5.72;5.13;;;;;;;;;;5032046;28;20124;-68
2023/01/19 04:04:24;;;;;;;5.82;5.32;;;;;;;;;;5032260;28;20065;-69
2023/01/19 04:06:51;;;;;;;6.15;4.97;;;;;;;;;;5031766;28;20263;-69
2023/01/19 04:09:17;;;;;;;7.10;5.55;;;;;;;;;;5031957;28;20049;-69
2023/01/19 04:15:07;;;;;;;4.70;4.28;;;;;;;;;;5031931;28;20040;-69
2023/01/19 04:17:33;;;;;;;6.25;4.90;;;;;;;;;;5020221;28;20037;-69
2023/01/19 04:20:00;;;;;;;6.25;4.57;;;;;;;;;;5051695;28;20052;-69
2023/01/19 04:22:26;;;;;;;5.47;4.57;;;;;;;;;;5051614;28;20047;-69
2023/01/19 04:24:53;;;;;;;6.50;4.65;;;;;;;;;;5051659;28;20470;-69
2023/01/19 04:27:20;;;;;;;5.50;4.47;;;;;;;;;;5033743;28;20060;-69
2023/01/19 04:29:46;;;;;;;4.80;4.28;;;;;;;;;;5051208;28;20173;-69
2023/01/19 04:32:13;;;;;;;6.55;4.50;;;;;;;;;;5034005;28;20110;-69
2023/01/19 04:34:39;;;;;;;7.28;5.10;;;;;;;;;;5051550;28;20095;-69
2023/01/19 04:37:07;;;;;;;8.48;5.97;;;;;;;;;;5051518;28;20052;-68
2023/01/19 04:39:33;;;;;;;7.55;5.72;;;;;;;;;;5033945;28;20124;-69
2023/01/19 04:42:00;;;;;;;6.88;5.03;;;;;;;;;;5051689;28;20128;-69
2023/01/19 04:44:27;;;;;;;4.97;4.47;;;;;;;;;;5051317;28;20132;-69
2023/01/19 04:46:53;;;;;;;4.50;4.10;;;;;;;;;;5051527;28;20064;-69
2023/01/19 04:49:20;;;;;;;6.28;5.38;;;;;;;;;;5051426;28;20136;-69
2023/01/19 04:51:46;;;;;;;5.47;4.32;;;;;;;;;;5051376;28;20059;-69
2023/01/19 04:54:12;;;;;;;7.60;5.30;;;;;;;;;;5051164;28;20088;-69
2023/01/19 04:56:39;;;;;;;6.78;5.32;;;;;;;;;;5051565;28;20064;-69
2023/01/19 04:59:06;;;;;;;6.32;5.72;;;;;;;;;;5051271;28;20128;-69
2023/01/19 05:01:32;;;;;;;8.32;5.75;;;;;;;;;;5051366;28;20037;-69
2023/01/19 05:03:59;;;;;;;8.95;6.10;;;;;;;;;;5051400;28;20052;-69
2023/01/19 05:06:25;;;;;;;6.57;5.63;;;;;;;;;;5033410;28;20059;-68
2023/01/19 05:08:52;;;;;;;6.32;5.15;;;;;;;;;;5051006;28;20049;-68
2023/01/19 05:11:18;;;;;;;6.38;5.22;;;;;;;;;;5051336;28;20055;-68
2023/01/19 05:13:44;;;;;;;5.32;4.50;;;;;;;;;;5033622;28;20048;-69
2023/01/19 05:16:12;;;;;;;5.60;4.63;;;;;;;;;;5051407;28;20055;-69
2023/01/19 05:18:39;;;;;;;4.88;4.10;;;;;;;;;;5051345;28;20052;-69
2023/01/19 05:21:06;;;;;;;5.22;4.50;;;;;;;;;;5051014;28;20439;-69
2023/01/19 05:23:32;;;;;;;5.13;4.50;;;;;;;;;;5051166;28;20128;-69
2023/01/19 05:26:00;;;;;;;5.82;4.50;;;;;;;;;;5051034;28;20095;-69
2023/01/19 05:28:27;;;;;;;5.30;4.15;;;;;;;;;;5033502;28;20049;-69
2023/01/19 05:30:54;;;;;;;7.05;4.90;;;;;;;;;;5051022;28;20087;-69
2023/01/19 05:33:21;;;;;;;6.00;4.70;;;;;;;;;;5051156;28;20444;-69
2023/01/19 05:35:49;;;;;;;5.20;4.70;;;;;;;;;;5051002;28;20049;-69
2023/01/19 05:38:15;;;;;;;4.97;4.05;;;;;;;;;;5033558;28;20051;-69
2023/01/19 05:40:48;;;;;;;4.57;3.97;;;;;;;;;;5051844;28;20049;-69
2023/01/19 05:43:14;;;;;;;6.45;5.05;;;;;;;;;;5036961;28;20044;-69
2023/01/19 05:45:41;;;;;;;8.40;5.18;;;;;;;;;;5054562;28;20545;-69
2023/01/19 05:48:07;;;;;;;8.88;5.82;;;;;;;;;;5054529;28;20045;-69
2023/01/19 05:50:35;;;;;;;8.35;5.75;;;;;;;;;;5054490;28;20049;-69
2023/01/19 05:53:01;;;;;;;6.18;5.05;;;;;;;;;;5054420;28;20136;-69
2023/01/19 05:55:29;;;;;;;8.20;5.13;;;;;;;;;;5054585;28;20044;-69
2023/01/19 05:57:55;;;;;;;5.88;4.80;;;;;;;;;;5054303;28;20063;-69
2023/01/19 06:00:21;;;;;;;5.47;4.97;;;;;;;;;;5054396;28;20072;-69
2023/01/19 06:02:48;;;;;;;9.02;5.90;;;;;;;;;;5054255;28;20061;-69
2023/01/19 06:05:15;;;;;;;10.73;6.93;;;;;;;;;;5036331;28;20107;-69
2023/01/19 06:07:42;;;;;;;7.55;6.10;;;;;;;;;;5054162;28;20083;-69
2023/01/19 06:10:08;;;;;;;7.88;6.57;;;;;;;;;;5036230;28;20140;-69
2023/01/19 06:12:36;;;;;;;7.90;5.55;;;;;;;;;;5054052;28;20083;-69
2023/01/19 06:15:02;;;;;;;6.50;5.30;;;;;;;;;;5036384;28;20053;-69
2023/01/19 06:17:30;;;;;;;6.80;5.13;;;;;;;;;;5036235;28;20317;-69
2023/01/19 06:19:56;;;;;;;6.57;4.78;;;;;;;;;;5053795;28;20063;-69
2023/01/19 06:22:23;;;;;;;5.75;4.78;;;;;;;;;;5053818;28;20500;-69
2023/01/19 06:24:50;;;;;;;5.50;5.00;;;;;;;;;;5036089;28;20077;-68
2023/01/19 06:27:16;;;;;;;7.32;5.20;;;;;;;;;;5053817;28;20048;-68
2023/01/19 06:29:42;;;;;;;6.57;4.68;;;;;;;;;;5054057;28;20080;-69
2023/01/19 06:32:09;;;;;;;5.53;4.90;;;;;;;;;;5053583;28;20135;-69
2023/01/19 06:34:35;;;;;;;7.70;5.40;;;;;;;;;;5053813;28;20048;-69
2023/01/19 06:37:02;;;;;;;7.57;5.65;;;;;;;;;;5053849;28;20123;-69
2023/01/19 06:39:29;;;;;;;7.72;5.72;;;;;;;;;;5035759;28;20536;-69
2023/01/19 06:41:55;;;;;;;6.88;5.32;;;;;;;;;;5053825;28;20151;-69
2023/01/19 06:44:21;;;;;;;7.97;5.63;;;;;;;;;;5053747;28;20136;-69
2023/01/19 06:46:48;;;;;;;8.05;5.95;;;;;;;;;;5053678;28;20049;-69
2023/01/19 06:49:14;;;;;;;6.60;5.22;;;;;;;;;;5035927;28;20088;-68
2023/01/19 06:51:41;;;;;;;7.47;5.18;;;;;;;;;;5053624;28;20500;-68
2023/01/19 06:54:08;;;;;;;6.03;5.10;;;;;;;;;;5034818;28;20059;-68
2023/01/19 06:56:34;;;;;;;6.95;5.07;;;;;;;;;;5035404;28;20049;-68
2023/01/19 06:59:00;;;;;;;13.90;7.22;;;;;;;;;;5053472;28;20072;-68
2023/01/19 07:01:27;;;;;;;24.80;13.13;;;;;;;;;;5053247;28;20065;-69
2023/01/19 07:03:53;;;;;;;26.25;13.52;;;;;;;;;;5053113;28;20053;-69
2023/01/19 07:06:20;;;;;;;24.83;13.50;;;;;;;;;;5035487;28;20109;-69
2023/01/19 07:08:46;;;;;;;24.02;11.80;;;;;;;;;;5052866;28;20063;-68
2023/01/19 07:11:13;;;;;;;20.35;10.75;;;;;;;;;;5053037;28;20049;-68
2023/01/19 07:13:58;;;;;;;15.63;8.77;;;;;;;;;;5037780;28;20092;-68
2023/01/19 07:16:24;;;;;;;12.05;7.40;;;;;;;;;;5053022;28;20488;-69
2023/01/19 07:18:51;;;;;;;9.80;6.45;;;;;;;;;;5052416;28;20045;-70
2023/01/19 07:21:17;;;;;;;8.27;6.40;;;;;;;;;;5051856;28;20045;-69
2023/01/19 07:23:46;;;;;;;7.90;6.28;;;;;;;;;;5052461;28;20049;-69
2023/01/19 07:26:14;;;;;;;9.15;6.55;;;;;;;;;;5052244;28;20128;-69
2023/01/19 07:28:40;;;;;;;10.48;6.55;;;;;;;;;;5052399;28;20049;-70
2023/01/19 07:31:07;;;;;;;10.00;7.22;;;;;;;;;;5051817;28;20080;-69
2023/01/19 07:33:34;;;;;;;9.82;7.30;;;;;;;;;;5052129;28;20092;-69
2023/01/19 07:36:01;;;;;;;11.43;8.30;;;;;;;;;;5034581;28;20044;-68
2023/01/19 07:38:27;;;;;;;11.00;7.82;;;;;;;;;;5052202;28;20047;-69
2023/01/19 07:41:00;;;;;;;11.68;8.10;;;;;;;;;;5051884;28;20044;-68
2023/01/19 07:43:27;;;;;;;10.48;8.57;;;;;;;;;;5051891;28;20058;-69
2023/01/19 07:45:57;;;;;;;12.63;9.52;;;;;;;;;;5051859;28;20099;-70
2023/01/19 07:48:23;;;;;;;11.70;9.23;;;;;;;;;;5052171;28;20052;-69
2023/01/19 07:50:50;;;;;;;12.13;10.00;;;;;;;;;;5051502;28;20049;-70
2023/01/19 07:53:16;;;;;;;13.93;9.38;;;;;;;;;;5052216;28;20053;-70
2023/01/19 07:55:43;;;;;;;10.98;8.55;;;;;;;;;;5051994;28;20055;-67
2023/01/19 07:58:09;;;;;;;11.85;7.57;;;;;;;;;;5052093;28;20052;-69
2023/01/19 08:00:36;;;;;;;12.43;7.25;;;;;;;;;;5052291;28;20103;-69
2023/01/19 08:03:03;;;;;;;13.38;8.18;;;;;;;;;;5052647;28;20422;-69
2023/01/19 08:05:31;;;;;;;9.98;7.53;;;;;;;;;;5051143;28;20048;-69
2023/01/19 08:07:59;;;;;;;13.93;8.35;;;;;;;;;;5051883;28;20374;-69
2023/01/19 08:10:26;;;;;;;10.70;8.52;;;;;;;;;;5051822;28;20546;-69
2023/01/19 08:12:53;;;;;;;10.85;7.95;;;;;;;;;;5052103;28;20053;-70
2023/01/19 08:15:22;;;;;;;13.32;8.13;;;;;;;;;;5051799;28;20136;-70
2023/01/19 08:17:55;;;;;;;13.52;7.55;;;;;;;;;;5034411;28;20084;-70
2023/01/19 08:20:22;;;;;;;10.18;8.20;;;;;;;;;;5051718;28;20051;-70
2023/01/19 08:22:48;;;;;;;11.00;8.20;;;;;;;;;;5051666;28;20152;-70
2023/01/19 08:25:15;;;;;;;13.88;7.95;;;;;;;;;;5051686;28;20088;-70
2023/01/19 08:27:41;;;;;;;8.38;6.88;;;;;;;;;;5051952;28;20095;-70
2023/01/19 08:30:08;;;;;;;10.48;7.50;;;;;;;;;;5051617;28;20053;-67
2023/01/19 08:32:34;;;;;;;11.27;8.60;;;;;;;;;;5051445;28;20159;-70
2023/01/19 08:35:01;;;;;;;11.05;7.97;;;;;;;;;;5032805;28;20057;-71
2023/01/19 08:37:27;;;;;;;10.88;8.10;;;;;;;;;;5050795;28;20051;-70
2023/01/19 08:39:53;;;;;;;11.93;7.85;;;;;;;;;;5051003;28;20048;-70
2023/01/19 08:42:20;;;;;;;9.70;6.90;;;;;;;;;;5050253;28;20041;-71
2023/01/19 08:44:46;;;;;;;14.27;8.68;;;;;;;;;;5050620;28;20131;-65
2023/01/19 08:47:23;;;;;;;11.30;8.00;;;;;;;;;;5040941;28;20045;-67
2023/01/19 08:49:49;;;;;;;13.25;10.57;;;;;;;;;;5051066;28;20060;-67
2023/01/19 08:52:16;;;;;;;14.43;10.07;;;;;;;;;;5050877;28;20056;-68
2023/01/19 08:54:42;;;;;;;14.05;9.35;;;;;;;;;;5051132;28;20048;-68
2023/01/19 08:57:08;;;;;;;13.40;8.77;;;;;;;;;;5050805;28;20053;-67
2023/01/19 08:59:35;;;;;;;11.32;8.07;;;;;;;;;;5050717;28;20059;-67
2023/01/19 09:02:02;;;;;;;16.15;9.20;;;;;;;;;;5050779;28;20199;-69
2023/01/19 09:04:28;;;;;;;14.35;7.88;;;;;;;;;;5044391;28;20041;-67
2023/01/19 09:06:54;;;;;;;14.05;9.18;;;;;;;;;;5051082;28;20135;-68
2023/01/19 09:09:21;;;;;;;15.15;9.70;;;;;;;;;;5050789;28;20091;-67
2023/01/19 09:11:47;;;;;;;18.45;10.10;;;;;;;;;;5050688;28;20053;-67
2023/01/19 09:14:14;;;;;;;13.43;9.95;;;;;;;;;;5025405;28;20053;-67
2023/01/19 09:16:40;;;;;;;14.40;9.57;;;;;;;;;;5042699;28;20060;-66
2023/01/19 09:19:08;;;;;;;13.90;10.40;;;;;;;;;;5054407;28;20053;-67
2023/01/19 09:21:34;;;;;;;14.30;9.17;;;;;;;;;;5054599;28;20416;-66
2023/01/19 09:24:00;;;;;;;13.18;8.68;;;;;;;;;;5054610;28;20048;-66
2023/01/19 09:26:27;;;;;;;13.32;9.35;;;;;;;;;;5052911;28;20049;-67
2023/01/19 09:28:53;;;;;;;12.07;8.52;;;;;;;;;;5046093;28;20055;-66
2023/01/19 09:31:20;;;;;;;13.27;8.35;;;;;;;;;;5054765;28;20690;-66
2023/01/19 09:33:46;;;;;;;12.57;7.70;;;;;;;;;;5054039;28;20484;-67
2023/01/19 09:36:13;;;;;;;10.02;7.72;;;;;;;;;;5053903;28;20487;-67
2023/01/19 09:38:39;;;;;;;13.55;8.02;;;;;;;;;;5052981;28;20119;-67
2023/01/19 09:41:17;;;;;;;13.18;9.02;;;;;;;;;;5045542;28;20129;-66
2023/01/19 09:43:58;;;;;;;13.00;9.18;;;;;;;;;;5047892;28;20081;-67
2023/01/19 09:46:51;;;;;;;12.13;9.93;;;;;;;;;;5054450;28;20131;-67
2023/01/19 09:49:27;;;;;;;13.20;9.25;;;;;;;;;;5050946;28;20053;-66
2023/01/19 09:51:53;;;;;;;13.02;11.30;;;;;;;;;;5054557;28;20045;-67
2023/01/19 09:54:28;;;;;;;15.82;11.25;;;;;;;;;;5054392;28;20049;-66
2023/01/19 09:56:55;;;;;;;14.75;11.48;;;;;;;;;;5054116;28;20081;-66
2023/01/19 09:59:25;;;;;;;15.63;12.10;;;;;;;;;;5050231;28;20585;-67
2023/01/19 10:01:52;;;;;;;15.88;11.88;;;;;;;;;;5043231;28;20045;-67
2023/01/19 10:04:35;;;;;;;17.15;14.02;;;;;;;;;;5054115;28;20519;-67
2023/01/19 10:07:09;;;;;;;26.05;17.67;;;;;;;;;;5050177;28;20129;-67
2023/01/19 10:09:46;;;;;;;16.55;12.45;;;;;;;;;;5035933;28;20041;-67
2023/01/19 10:12:33;;;;;;;16.35;11.57;;;;;;;;;;5054137;28;20136;-67
2023/01/19 10:15:11;;;;;;;14.00;10.60;;;;;;;;;;5013480;28;20447;-67
2023/01/19 10:17:44;;;;;;;17.08;10.40;;;;;;;;;;5052057;28;20051;-67
2023/01/19 10:20:25;;;;;;;13.98;11.43;;;;;;;;;;5042157;28;20082;-67
2023/01/19 10:22:52;;;;;;;15.82;12.48;;;;;;;;;;5054403;28;20384;-67
2023/01/19 10:25:20;;;;;;;13.40;11.10;;;;;;;;;;5053712;28;20048;-67
2023/01/19 10:27:46;;;;;;;14.18;10.82;;;;;;;;;;5052299;28;20048;-67
2023/01/19 10:30:19;;;;;;;19.53;13.30;;;;;;;;;;5053123;28;20092;-67
2023/01/19 10:32:46;;;;;;;17.08;13.00;;;;;;;;;;5054024;28;20049;-67
2023/01/19 10:35:23;;;;;;;12.93;9.68;;;;;;;;;;5053814;28;20103;-67
2023/01/19 10:37:50;;;;;;;12.97;10.77;;;;;;;;;;5053942;28;20102;-67
2023/01/19 10:40:30;;;;;;;15.35;11.00;;;;;;;;;;5053512;28;20115;-67
2023/01/19 10:42:57;;;;;;;14.88;10.73;;;;;;;;;;5053682;28;20053;-67
2023/01/19 10:45:25;;;;;;;11.63;10.00;;;;;;;;;;5053800;28;20045;-67
2023/01/19 10:47:53;;;;;;;11.48;9.77;;;;;;;;;;5053386;28;20124;-67
2023/01/19 10:50:20;;;;;;;14.68;10.75;;;;;;;;;;5053976;28;20049;-67
2023/01/19 10:52:48;;;;;;;13.10;8.98;;;;;;;;;;5051020;28;20452;-68
2023/01/19 10:55:28;;;;;;;12.43;8.73;;;;;;;;;;5033225;28;20107;-67
2023/01/19 10:57:56;;;;;;;14.55;10.02;;;;;;;;;;5032389;28;20077;-67
2023/01/19 11:00:38;;;;;;;9.93;7.85;;;;;;;;;;5033928;28;20045;-67
2023/01/19 11:03:24;;;;;;;9.45;6.00;;;;;;;;;;5030452;28;20091;-67
2023/01/19 11:05:50;;;;;;;8.13;5.35;;;;;;;;;;5040437;28;20128;-67
2023/01/19 11:08:21;;;;;;;8.23;5.73;;;;;;;;;;5032218;28;20132;-67
2023/01/19 11:11:03;;;;;;;8.98;5.82;;;;;;;;;;5042462;28;20531;-67
2023/01/19 11:13:30;;;;;;;10.18;6.05;;;;;;;;;;5037464;28;20053;-67
2023/01/19 11:15:58;;;;;;;9.00;6.22;;;;;;;;;;5042195;28;20049;-68
2023/01/19 11:18:27;;;;;;;9.00;5.03;;;;;;;;;;5040013;28;20049;-68
2023/01/19 11:20:56;;;;;;;9.07;4.43;;;;;;;;;;5032375;28;20497;-68
2023/01/19 11:23:25;;;;;;;9.25;5.20;;;;;;;;;;5032569;28;20394;-68
2023/01/19 11:25:53;;;;;;;7.18;3.58;;;;;;;;;;5042536;28;20049;-68
2023/01/19 11:28:31;;;;;;;6.05;3.50;;;;;;;;;;5052926;28;20135;-68
2023/01/19 11:31:01;;;;;;;7.32;3.53;;;;;;;;;;5052808;28;20053;-68
2023/01/19 11:33:35;;;;;;;8.02;3.90;;;;;;;;;;5052868;28;20047;-68
2023/01/19 11:36:05;;;;;;;7.60;4.10;;;;;;;;;;5051993;28;20580;-67
2023/01/19 11:38:38;;;;;;;8.15;3.90;;;;;;;;;;5052514;28;20056;-67
2023/01/19 11:41:13;;;;;;;7.80;3.63;;;;;;;;;;5052457;28;20065;-67
2023/01/19 11:43:40;;;;;;;7.78;3.22;;;;;;;;;;5052731;28;20139;-68
2023/01/19 11:46:15;;;;;;;9.23;3.45;;;;;;;;;;5051875;28;20512;-68
2023/01/19 11:48:41;;;;;;;;;;;;;;;;;;5052694;28;20087;-67
2023/01/19 11:51:12;;;;;;;9.98;5.63;;;;;;;;;;5051921;28;19927;-68
2023/01/19 11:53:39;;;;;;;9.95;5.50;;;;;;;;;;5052067;28;20136;-68
2023/01/19 11:56:10;;;;;;;12.18;7.53;;;;;;;;;;5047660;28;20404;-67
2023/01/19 11:58:40;;;;;;;8.23;4.22;;;;;;;;;;5051740;28;20102;-67
2023/01/19 12:01:09;;;;;;;11.60;8.05;;;;;;;;;;5052000;28;20059;-68
2023/01/19 12:03:39;;;;;;;11.10;7.47;;;;;;;;;;5049412;28;20053;-68
2023/01/19 12:06:08;;;;;;;5.85;3.03;;;;;;;;;;5051689;28;20048;-67
2023/01/19 12:08:38;;;;;;;6.82;3.92;;;;;;;;;;5051286;28;20416;-67
2023/01/19 12:11:07;;;;;;;4.53;2.92;;;;;;;;;;5033805;28;20076;-67
2023/01/19 12:13:34;;;;;;;11.70;6.95;;;;;;;;;;5051556;28;20059;-67
2023/01/19 12:16:00;;;;;;;;;;;;;;;;;;5051538;28;20448;-67
2023/01/19 12:18:29;;;;;;;14.13;8.15;;;;;;;;;;5051532;28;19924;-67
2023/01/19 12:20:57;;;;;;;13.13;7.30;;;;;;;;;;5051115;28;20469;-67
2023/01/19 12:23:30;;;;;;;8.60;5.10;;;;;;;;;;5051407;28;20052;-67
2023/01/19 12:26:05;;;;;;;10.52;6.30;;;;;;;;;;5051059;28;20060;-67
2023/01/19 12:28:35;;;;;;;10.90;5.35;;;;;;;;;;5051392;28;20080;-67
2023/01/19 12:31:02;;;;;;;7.60;3.88;;;;;;;;;;5051319;28;20060;-67
2023/01/19 12:33:36;;;;;;;7.70;4.15;;;;;;;;;;5050643;28;20095;-67
2023/01/19 12:36:05;;;;;;;6.50;4.43;;;;;;;;;;5050585;28;20041;-67
2023/01/19 12:38:37;;;;;;;5.70;3.08;;;;;;;;;;5044592;28;20132;-67
2023/01/19 12:41:24;;;;;;;3.85;1.63;;;;;;;;;;5051402;28;20063;-67
2023/01/19 12:44:11;;;;;;;3.50;1.52;;;;;;;;;;5050709;28;20073;-67
2023/01/19 12:46:39;;;;;;;3.00;1.98;;;;;;;;;;5037114;28;20192;-67
2023/01/19 12:49:08;;;;;;;3.83;1.80;;;;;;;;;;5044912;28;20055;-67
2023/01/19 12:51:34;;;;;;;5.20;2.38;;;;;;;;;;5054578;28;20048;-67
2023/01/19 12:54:03;;;;;;;5.57;2.22;;;;;;;;;;5057376;28;20146;-67
2023/01/19 12:56:32;;;;;;;4.32;1.50;;;;;;;;;;5056042;28;20051;-67
2023/01/19 12:58:59;;;;;;;4.20;1.65;;;;;;;;;;5056558;28;20041;-67
2023/01/19 13:01:25;;;;;;;2.85;1.27;;;;;;;;;;5057224;28;20041;-67
2023/01/19 13:04:08;;;;;;;5.63;1.52;;;;;;;;;;5057706;28;20404;-67
2023/01/19 13:06:46;;;;;;;3.80;1.90;;;;;;;;;;5057641;28;20051;-67
2023/01/19 13:09:25;;;;;;;4.72;1.95;;;;;;;;;;5057986;28;20508;-67
2023/01/19 13:12:10;;;;;;;4.07;2.60;;;;;;;;;;5058181;28;20049;-67
2023/01/19 13:14:36;;;;;;;5.25;2.95;;;;;;;;;;5058081;28;20063;-67
2023/01/19 13:17:04;;;;;;;3.65;1.80;;;;;;;;;;5057768;28;20041;-67
2023/01/19 13:19:35;;;;;;;5.15;3.00;;;;;;;;;;5040266;28;20127;-67
2023/01/19 13:22:21;;;;;;;5.15;3.17;;;;;;;;;;5058084;28;20045;-67
2023/01/19 13:25:05;;;;;;;3.85;1.75;;;;;;;;;;5057800;28;20051;-67
2023/01/19 13:27:33;;;;;;;3.40;1.55;;;;;;;;;;5057998;28;20077;-67
2023/01/19 13:29:59;;;;;;;5.00;2.25;;;;;;;;;;5057718;28;20492;-67
2023/01/19 13:32:27;;;;;;;2.22;1.77;;;;;;;;;;5056775;28;20063;-67
2023/01/19 13:34:57;;;;;;;3.80;1.70;;;;;;;;;;5057522;28;20044;-67
2023/01/19 13:37:38;;;;;;;3.60;1.30;;;;;;;;;;5056596;28;20045;-67
2023/01/19 13:40:05;;;;;;;3.03;1.40;;;;;;;;;;5039879;28;20055;-67
2023/01/19 13:42:36;;;;;;;4.28;1.73;;;;;;;;;;5057478;28;20128;-67
2023/01/19 13:45:14;;;;;;;3.40;1.52;;;;;;;;;;5057745;28;20052;-67
2023/01/19 13:47:50;;;;;;;4.20;2.80;;;;;;;;;;5057532;28;20060;-67
2023/01/19 13:50:19;;;;;;;2.87;1.80;;;;;;;;;;5057576;28;20061;-67
2023/01/19 13:52:47;;;;;;;3.47;1.40;;;;;;;;;;5057483;28;20051;-66
2023/01/19 13:55:14;;;;;;;3.75;1.70;;;;;;;;;;5057635;28;20140;-66
2023/01/19 13:57:40;;;;;;;;;;;;;;;;;;5057965;28;20085;-67
2023/01/19 14:00:16;;;;;;;2.05;1.25;;;;;;;;;;5057849;28;19928;-66
2023/01/19 14:02:54;;;;;;;3.53;1.60;;;;;;;;;;5055658;28;20519;-66
2023/01/19 14:05:21;;;;;;;3.08;1.60;;;;;;;;;;5054471;28;20045;-67
2023/01/19 14:07:57;;;;;;;5.28;1.58;;;;;;;;;;5054216;28;20136;-67
2023/01/19 14:10:24;;;;;;;2.63;1.75;;;;;;;;;;5036790;28;20048;-66
2023/01/19 14:13:02;;;;;;;4.35;1.50;;;;;;;;;;5054146;28;20071;-67
2023/01/19 14:15:30;;;;;;;4.82;1.70;;;;;;;;;;5054384;28;20443;-67
2023/01/19 14:18:11;;;;;;;2.85;1.63;;;;;;;;;;5053898;28;20059;-67
2023/01/19 14:20:37;;;;;;;2.88;1.50;;;;;;;;;;5054227;28;20044;-67
2023/01/19 14:23:04;;;;;;;6.93;5.03;;;;;;;;;;5053888;28;20412;-66
2023/01/19 14:25:32;;;;;;;4.05;2.85;;;;;;;;;;5053807;28;20389;-66
2023/01/19 14:28:17;;;;;;;3.63;1.38;;;;;;;;;;5054109;28;20051;-66
2023/01/19 14:31:16;;;;;;;4.60;1.70;;;;;;;;;;5053826;28;20055;-67
2023/01/19 14:33:44;;;;;;;2.78;1.40;;;;;;;;;;5053829;28;20053;-66
2023/01/19 14:36:17;;;;;;;2.40;1.15;;;;;;;;;;5053736;28;20053;-66
2023/01/19 14:38:47;;;;;;;3.17;2.35;;;;;;;;;;5053571;28;20053;-66
2023/01/19 14:41:21;;;;;;;2.88;1.30;;;;;;;;;;5053280;28;20564;-66
2023/01/19 14:43:48;;;;;;;2.00;1.00;;;;;;;;;;5053514;28;20485;-66
2023/01/19 14:46:18;;;;;;;2.07;1.30;;;;;;;;;;5052647;28;20037;-67
2023/01/19 14:48:45;;;;;;;3.95;1.58;;;;;;;;;;5052948;28;20045;-66
2023/01/19 14:51:15;;;;;;;2.40;0.98;;;;;;;;;;5052844;28;20127;-66
2023/01/19 14:53:46;;;;;;;2.58;1.23;;;;;;;;;;5053560;28;20162;-66
2023/01/19 14:56:22;;;;;;;2.47;1.45;;;;;;;;;;5053288;28;20045;-66
2023/01/19 14:58:48;;;;;;;4.13;2.03;;;;;;;;;;5053616;28;20404;-66
2023/01/19 15:01:15;;;;;;;16.95;15.32;;;;;;;;;;5053422;28;20048;-67
2023/01/19 15:03:41;;;;;;;2.58;2.20;;;;;;;;;;5053371;28;20045;-67
2023/01/19 15:06:18;;;;;;;4.13;2.53;;;;;;;;;;5053372;28;20048;-66
2023/01/19 15:08:45;;;;;;;3.13;1.30;;;;;;;;;;5053017;28;20084;-66